Time;durP1;ratioP1;P1;durP2;ratioP2;P2;SDS_P1;SDS_P2;PMS_P1;PMS_P2;Temp;Humidity;BMP_temperature;BMP_pressure;BME280_temperature;BME280_humidity;BME280_pressure;Samples;Min_cycle;Max_cycle;Signal;HPM_P1;HPM_P2
2021/12/13 00:03:55;;;;;;;36.2;71.4;;;;;;;-4.7;81;99530;;;;
2021/12/13 00:13:55;;;;;;;38.7;68.1;;;;;;;-4.7;80.9;99540;;;;
2021/12/13 00:23:55;;;;;;;38.7;68.1;;;;;;;-4.7;80.7;99540;;;;
2021/12/13 00:33:54;;;;;;;38.7;68.1;;;;;;;-4.8;80.4;99530;;;;
2021/12/13 00:44:55;;;;;;;33;56.5;;;;;;;-4.9;80.5;99530;;;;
2021/12/13 00:54:56;;;;;;;33;56.5;;;;;;;-4.9;80.7;99540;;;;
2021/12/13 01:04:55;;;;;;;33;56.5;;;;;;;-4.8;81.1;99540;;;;
2021/12/13 01:14:57;;;;;;;28.1;42;;;;;;;-4.8;80.9;99540;;;;
2021/12/13 01:25:40;;;;;;;28.1;42;;;;;;;-4.9;80.7;99540;;;;
2021/12/13 01:35:55;;;;;;;28.1;42;;;;;;;-5;80.2;99540;;;;
2021/12/13 01:46:55;;;;;;;24.5;43.9;;;;;;;-5.1;80.1;99550;;;;
2021/12/13 01:57:56;;;;;;;24.5;43.9;;;;;;;-5.1;80.1;99540;;;;
2021/12/13 02:08:55;;;;;;;40.4;73.8;;;;;;;-4.9;80.6;99530;;;;
2021/12/13 02:19:57;;;;;;;40.4;73.8;;;;;;;-4.9;80.2;99490;;;;
2021/12/13 02:30:55;;;;;;;40.4;73.8;;;;;;;-4.9;80.3;99480;;;;
2021/12/13 02:40:55;;;;;;;29.1;56.3;;;;;;;-5;80;99490;;;;
2021/12/13 02:51:55;;;;;;;29.1;56.3;;;;;;;-5.2;79;99500;;;;
2021/12/13 03:01:55;;;;;;;29.1;56.3;;;;;;;-5.3;78.9;99490;;;;
2021/12/13 03:12:55;;;;;;;41.8;73.2;;;;;;;-5.5;78.1;99500;;;;
2021/12/13 03:22:55;;;;;;;41.8;73.2;;;;;;;-5.4;78.5;99510;;;;
2021/12/13 03:33:54;;;;;;;41.8;73.2;;;;;;;-5.4;78.1;99510;;;;
2021/12/13 03:43:55;;;;;;;36.8;63.2;;;;;;;-5.5;77.5;99510;;;;
2021/12/13 03:54:55;;;;;;;36.8;63.2;;;;;;;-5.5;77.9;99510;;;;
2021/12/13 04:04:55;;;;;;;36.8;63.2;;;;;;;-5.5;77.7;99520;;;;
2021/12/13 04:16:01;;;;;;;34.4;67.5;;;;;;;-5.6;77.5;99540;;;;
2021/12/13 04:25:56;;;;;;;34.4;67.5;;;;;;;-5.8;77.8;99520;;;;
2021/12/13 04:36:55;;;;;;;30.4;57;;;;;;;-5.6;78.3;99540;;;;
2021/12/13 04:47:55;;;;;;;30.4;57;;;;;;;-5.5;77.8;99530;;;;
2021/12/13 04:57:55;;;;;;;30.4;57;;;;;;;-5.5;77.3;99530;;;;
2021/12/13 05:07:55;;;;;;;27.6;46.9;;;;;;;-5.5;76.6;99540;;;;
2021/12/13 05:18:55;;;;;;;27.6;46.9;;;;;;;-5.7;76.7;99510;;;;
2021/12/13 05:28:57;;;;;;;27.6;46.9;;;;;;;-5.9;77.3;99530;;;;
2021/12/13 05:39:55;;;;;;;26.6;42.1;;;;;;;-5.8;77.2;99550;;;;
2021/12/13 05:50:55;;;;;;;26.6;42.1;;;;;;;-5.7;76.6;99560;;;;
2021/12/13 06:01:55;;;;;;;26.6;42.1;;;;;;;-5.9;76.2;99580;;;;
2021/12/13 06:12:55;;;;;;;25.1;44.4;;;;;;;-6.2;77.1;99600;;;;
2021/12/13 06:22:55;;;;;;;25.1;44.4;;;;;;;-6;76.5;99580;;;;
2021/12/13 06:32:57;;;;;;;25.1;44.4;;;;;;;-6;76.6;99600;;;;
2021/12/13 06:43:55;;;;;;;30.5;53.4;;;;;;;-6;76.7;99610;;;;
2021/12/13 06:53:55;;;;;;;30.5;53.4;;;;;;;-5.8;76.7;99620;;;;
2021/12/13 07:04:55;;;;;;;30.5;53.4;;;;;;;-5.5;76.2;99630;;;;
2021/12/13 07:14:55;;;;;;;20.7;35.7;;;;;;;-5.5;75.8;99640;;;;
2021/12/13 07:24:55;;;;;;;20.7;35.7;;;;;;;-5.2;75.4;99640;;;;
2021/12/13 07:35:55;;;;;;;23;42.5;;;;;;;-5;76.4;99660;;;;
2021/12/13 07:46:55;;;;;;;23;42.5;;;;;;;-4.7;75.4;99670;;;;
2021/12/13 07:56:55;;;;;;;23;42.5;;;;;;;-4.4;75.4;99680;;;;
2021/12/13 08:07:55;;;;;;;31;53;;;;;;;-4.2;75.5;99690;;;;
2021/12/13 08:17:55;;;;;;;31;53;;;;;;;-4.1;75.7;99690;;;;
2021/12/13 08:27:55;;;;;;;31;53;;;;;;;-3.9;76.2;99690;;;;
2021/12/13 08:37:55;;;;;;;37;62.7;;;;;;;-3.6;76.8;99700;;;;
2021/12/13 08:47:55;;;;;;;37;62.7;;;;;;;-3.3;77.2;99710;;;;
2021/12/13 08:57:55;;;;;;;37;62.7;;;;;;;-3;77.3;99720;;;;
2021/12/13 09:08:55;;;;;;;43.4;74.4;;;;;;;-2.7;77.5;99710;;;;
2021/12/13 09:19:55;;;;;;;43.4;74.4;;;;;;;-2.4;77.2;99700;;;;
2021/12/13 09:29:55;;;;;;;43.4;74.4;;;;;;;-2;77.5;99700;;;;
2021/12/13 09:39:55;;;;;;;43.4;68.9;;;;;;;-1.6;77.4;99680;;;;
2021/12/13 09:50:55;;;;;;;43.4;68.9;;;;;;;-1.1;77.4;99680;;;;
2021/12/13 10:00:55;;;;;;;43.4;68.9;;;;;;;-0.8;76.6;99670;;;;
2021/12/13 10:11:55;;;;;;;43.8;68.6;;;;;;;-0.4;75.9;99670;;;;
2021/12/13 10:21:55;;;;;;;43.8;68.6;;;;;;;-0.1;75.4;99680;;;;
2021/12/13 10:31:55;;;;;;;43.8;68.6;;;;;;;0.2;74.2;99680;;;;
2021/12/13 10:42:55;;;;;;;42.1;57.5;;;;;;;0.7;74.2;99670;;;;
2021/12/13 10:52:55;;;;;;;42.1;57.5;;;;;;;1.1;73.1;99670;;;;
2021/12/13 11:02:55;;;;;;;42.1;57.5;;;;;;;1.5;73.6;99660;;;;
2021/12/13 11:12:55;;;;;;;42.5;53.9;;;;;;;1.7;72.1;99660;;;;
2021/12/13 11:23:55;;;;;;;42.5;53.9;;;;;;;2;71.3;99660;;;;
2021/12/13 11:33:55;;;;;;;42.5;53.9;;;;;;;2.3;70.9;99660;;;;
2021/12/13 11:44:55;;;;;;;45.5;55.5;;;;;;;2.5;69.6;99670;;;;
2021/12/13 11:55:55;;;;;;;45.5;55.5;;;;;;;2.7;68.9;99650;;;;
2021/12/13 12:06:55;;;;;;;54.5;65.3;;;;;;;2.8;68.1;99640;;;;
2021/12/13 12:17:55;;;;;;;54.5;65.3;;;;;;;2.9;68.3;99630;;;;
2021/12/13 12:27:55;;;;;;;54.5;65.3;;;;;;;2.9;68;99620;;;;
2021/12/13 12:38:55;;;;;;;52.5;65.5;;;;;;;3;66.4;99620;;;;
2021/12/13 12:48:57;;;;;;;52.5;65.5;;;;;;;3.1;66.6;99620;;;;
2021/12/13 12:59:55;;;;;;;52.5;65.5;;;;;;;2.7;66.1;99620;;;;
2021/12/13 13:09:55;;;;;;;44.5;49.8;;;;;;;2.8;66.2;99630;;;;
2021/12/13 13:20:55;;;;;;;44.5;49.8;;;;;;;2.6;65.7;99650;;;;
2021/12/13 13:30:55;;;;;;;44.5;49.8;;;;;;;2.4;66.5;99660;;;;
2021/12/13 13:41:55;;;;;;;41;48.5;;;;;;;2.1;66.9;99660;;;;
2021/12/13 13:51:55;;;;;;;41;48.5;;;;;;;1.8;67.7;99670;;;;
2021/12/13 14:01:55;;;;;;;41;48.5;;;;;;;1.5;68.1;99670;;;;
2021/12/13 14:12:55;;;;;;;41.4;50.1;;;;;;;1.1;68.9;99680;;;;
2021/12/13 14:22:55;;;;;;;41.4;50.1;;;;;;;0.7;69.9;99680;;;;
2021/12/13 14:33:55;;;;;;;49.2;62.9;;;;;;;0.4;70.7;99680;;;;
2021/12/13 14:44:55;;;;;;;49.2;62.9;;;;;;;-0.1;71.8;99700;;;;
2021/12/13 14:54:55;;;;;;;49.2;62.9;;;;;;;-0.4;72.4;99710;;;;
2021/12/13 15:05:55;;;;;;;69.1;91.4;;;;;;;-0.8;73.2;99720;;;;
2021/12/13 15:16:55;;;;;;;69.1;91.4;;;;;;;-1;74.9;99730;;;;
2021/12/13 15:26:55;;;;;;;69.1;91.4;;;;;;;-1;75.5;99740;;;;
2021/12/13 15:37:55;;;;;;;45.1;71.6;;;;;;;-1.2;75.6;99740;;;;
2021/12/13 15:49:28;;;;;;;45.1;71.6;;;;;;;-1.3;75.7;99740;;;;
2021/12/13 15:58:55;;;;;;;45.1;71.6;;;;;;;-1.3;75.6;99750;;;;
2021/12/13 16:08:55;;;;;;;45;72.6;;;;;;;-1.5;75.3;99750;;;;
2021/12/13 16:18:55;;;;;;;45;72.6;;;;;;;-1.7;75.8;99760;;;;
2021/12/13 16:29:55;;;;;;;45;72.6;;;;;;;-1.8;76.2;99760;;;;
2021/12/13 16:39:55;;;;;;;70;116.1;;;;;;;-1.9;76.6;99760;;;;
2021/12/13 16:50:55;;;;;;;70;116.1;;;;;;;-2;77.4;99770;;;;
2021/12/13 17:00:55;;;;;;;70;116.1;;;;;;;-2;77.8;99770;;;;
2021/12/13 17:10:55;;;;;;;53.1;88.1;;;;;;;-2.1;77.6;99790;;;;
2021/12/13 17:21:55;;;;;;;53.1;88.1;;;;;;;-2.2;77.7;99800;;;;
2021/12/13 17:32:55;;;;;;;43.2;78.3;;;;;;;-2.2;77.7;99800;;;;
2021/12/13 17:42:55;;;;;;;43.2;78.3;;;;;;;-2.3;77.9;99810;;;;
2021/12/13 17:52:57;;;;;;;43.2;78.3;;;;;;;-2.3;78;99800;;;;
2021/12/13 18:02:55;;;;;;;55.4;95.7;;;;;;;-2.2;78.6;99820;;;;
2021/12/13 18:12:56;;;;;;;55.4;95.7;;;;;;;-1.9;78.8;99820;;;;
2021/12/13 18:22:55;;;;;;;55.4;95.7;;;;;;;-1.4;78.8;99810;;;;
2021/12/13 18:32:55;;;;;;;69.6;109.5;;;;;;;-1.1;78.5;99820;;;;
2021/12/13 18:44:02;;;;;;;69.6;109.5;;;;;;;-0.7;78.2;99820;;;;
2021/12/13 18:54:55;;;;;;;69.6;109.5;;;;;;;-0.4;77.7;99820;;;;
2021/12/13 19:05:55;;;;;;;93.4;127.8;;;;;;;-0.1;77.4;99830;;;;
2021/12/13 19:15:55;;;;;;;93.4;127.8;;;;;;;0.1;77.1;99830;;;;
2021/12/13 19:25:55;;;;;;;93.4;127.8;;;;;;;0;76.9;99830;;;;
2021/12/13 19:36:55;;;;;;;113.9;143.9;;;;;;;0.1;77.1;99840;;;;
2021/12/13 19:46:55;;;;;;;113.9;143.9;;;;;;;0.4;76.9;99830;;;;
2021/12/13 19:56:55;;;;;;;113.9;143.9;;;;;;;0.5;76.9;99830;;;;
2021/12/13 20:06:55;;;;;;;115.5;146.9;;;;;;;0.7;76.7;99840;;;;
2021/12/13 20:17:55;;;;;;;115.5;146.9;;;;;;;0.8;76.6;99840;;;;
2021/12/13 20:28:55;;;;;;;115.5;146.9;;;;;;;0.9;76.4;99850;;;;
2021/12/13 20:38:55;;;;;;;118.1;152.1;;;;;;;1;76.7;99840;;;;
2021/12/13 20:49:55;;;;;;;118.1;152.1;;;;;;;0.9;77;99850;;;;
2021/12/13 20:59:55;;;;;;;118.1;152.1;;;;;;;0.8;77.6;99840;;;;
2021/12/13 21:09:55;;;;;;;108.1;127;;;;;;;0.9;77.8;99840;;;;
2021/12/13 21:19:55;;;;;;;108.1;127;;;;;;;1.1;77.5;99830;;;;
2021/12/13 21:29:55;;;;;;;108.1;127;;;;;;;1.1;78;99830;;;;
2021/12/13 21:39:55;;;;;;;103.3;131.1;;;;;;;1.2;77.9;99830;;;;
2021/12/13 21:49:55;;;;;;;103.3;131.1;;;;;;;1.1;78.6;99830;;;;
2021/12/13 21:59:55;;;;;;;103.3;131.1;;;;;;;1.1;79.4;99830;;;;
2021/12/13 22:10:55;;;;;;;99.5;123.1;;;;;;;1.2;79.5;99810;;;;
2021/12/13 22:20:55;;;;;;;99.5;123.1;;;;;;;1.3;79.7;99820;;;;
2021/12/13 22:30:55;;;;;;;99.5;123.1;;;;;;;1.3;79.9;99810;;;;
2021/12/13 22:40:55;;;;;;;95.5;113.9;;;;;;;1.4;79.9;99820;;;;
2021/12/13 22:51:55;;;;;;;95.5;113.9;;;;;;;1.6;79.7;99820;;;;
2021/12/13 23:02:55;;;;;;;102.4;119.4;;;;;;;1.6;79.6;99820;;;;
2021/12/13 23:14:01;;;;;;;102.4;119.4;;;;;;;1.6;79.1;99830;;;;
2021/12/13 23:23:55;;;;;;;102.4;119.4;;;;;;;1.5;78.1;99830;;;;
2021/12/13 23:33:55;;;;;;;137.7;160.8;;;;;;;1.5;78;99830;;;;
2021/12/13 23:46:08;;;;;;;137.7;160.8;;;;;;;1.5;78.2;99830;;;;
2021/12/13 23:54:55;;;;;;;137.7;160.8;;;;;;;1.5;78.4;99840;;;;
